sensor_id;sensor_type;location;lat;lon;timestamp;pressure;altitude;pressure_sealevel;temperature;humidity
73103;BME280;61294;65.988;29.172;2022-10-16T00:01:10;97761.53;;;6.73;100.00
73103;BME280;61294;65.988;29.172;2022-10-16T00:10:42;97724.13;;;6.54;100.00
73103;BME280;61294;65.988;29.172;2022-10-16T00:13:26;97725.84;;;6.62;100.00
73103;BME280;61294;65.988;29.172;2022-10-16T00:15:55;97752.81;;;6.79;100.00
73103;BME280;61294;65.988;29.172;2022-10-16T00:18:21;97731.03;;;6.66;100.00
73103;BME280;61294;65.988;29.172;2022-10-16T00:20:55;97750.19;;;6.76;100.00
73103;BME280;61294;65.988;29.172;2022-10-16T00:23:42;97729.31;;;6.64;100.00
73103;BME280;61294;65.988;29.172;2022-10-16T00:26:18;97758.03;;;6.79;100.00
73103;BME280;61294;65.988;29.172;2022-10-16T00:29:10;97758.91;;;6.78;100.00
73103;BME280;61294;65.988;29.172;2022-10-16T00:31:46;97754.56;;;6.80;100.00
73103;BME280;61294;65.988;29.172;2022-10-16T00:34:15;97734.50;;;6.74;100.00
73103;BME280;61294;65.988;29.172;2022-10-16T00:36:52;97753.66;;;6.78;100.00
73103;BME280;61294;65.988;29.172;2022-10-16T00:39:20;97715.38;;;6.54;100.00
73103;BME280;61294;65.988;29.172;2022-10-16T00:42:13;97758.03;;;6.79;100.00
73103;BME280;61294;65.988;29.172;2022-10-16T00:45:09;97735.41;;;6.67;100.00
73103;BME280;61294;65.988;29.172;2022-10-16T00:47:47;97750.19;;;6.79;100.00
73103;BME280;61294;65.988;29.172;2022-10-16T00:50:30;97760.63;;;6.87;100.00
73103;BME280;61294;65.988;29.172;2022-10-16T00:53:05;97736.25;;;6.76;100.00
73103;BME280;61294;65.988;29.172;2022-10-16T00:55:44;97738.84;;;6.82;100.00
73103;BME280;61294;65.988;29.172;2022-10-16T00:58:11;97739.72;;;6.76;100.00
73103;BME280;61294;65.988;29.172;2022-10-16T01:00:47;97736.25;;;6.77;100.00
73103;BME280;61294;65.988;29.172;2022-10-16T01:03:36;97747.53;;;6.82;100.00
73103;BME280;61294;65.988;29.172;2022-10-16T01:06:17;97740.56;;;6.78;100.00
73103;BME280;61294;65.988;29.172;2022-10-16T01:13:55;97744.09;;;6.72;100.00
73103;BME280;61294;65.988;29.172;2022-10-16T01:16:32;97716.25;;;6.56;100.00
73103;BME280;61294;65.988;29.172;2022-10-16T01:19:19;97736.25;;;6.77;100.00
73103;BME280;61294;65.988;29.172;2022-10-16T01:21:59;97736.25;;;6.76;100.00
73103;BME280;61294;65.988;29.172;2022-10-16T01:24:39;97712.72;;;6.66;100.00
73103;BME280;61294;65.988;29.172;2022-10-16T01:27:25;97744.94;;;6.81;100.00
73103;BME280;61294;65.988;29.172;2022-10-16T01:34:58;97724.91;;;6.75;100.00
73103;BME280;61294;65.988;29.172;2022-10-16T01:37:46;97720.53;;;6.74;100.00
73103;BME280;61294;65.988;29.172;2022-10-16T01:40:16;97703.13;;;6.71;100.00
73103;BME280;61294;65.988;29.172;2022-10-16T01:42:48;97710.94;;;6.76;100.00
73103;BME280;61294;65.988;29.172;2022-10-16T01:45:17;97699.59;;;6.72;100.00
73103;BME280;61294;65.988;29.172;2022-10-16T01:47:44;97723.13;;;6.80;100.00
73103;BME280;61294;65.988;29.172;2022-10-16T01:50:15;97717.91;;;6.74;100.00
73103;BME280;61294;65.988;29.172;2022-10-16T01:52:46;97717.03;;;6.77;100.00
73103;BME280;61294;65.988;29.172;2022-10-16T01:55:38;97703.09;;;6.67;100.00
73103;BME280;61294;65.988;29.172;2022-10-16T01:58:14;97703.09;;;6.74;100.00
73103;BME280;61294;65.988;29.172;2022-10-16T02:00:43;97685.72;;;6.63;100.00
73103;BME280;61294;65.988;29.172;2022-10-16T02:03:18;97702.22;;;6.76;100.00
73103;BME280;61294;65.988;29.172;2022-10-16T02:06:06;97696.97;;;6.74;100.00
73103;BME280;61294;65.988;29.172;2022-10-16T02:08:55;97708.31;;;6.79;100.00
73103;BME280;61294;65.988;29.172;2022-10-16T02:11:42;97695.28;;;6.68;100.00
73103;BME280;61294;65.988;29.172;2022-10-16T02:14:18;97715.28;;;6.80;100.00
73103;BME280;61294;65.988;29.172;2022-10-16T02:20:25;97686.53;;;6.68;100.00
73103;BME280;61294;65.988;29.172;2022-10-16T02:22:54;97698.72;;;6.75;100.00
73103;BME280;61294;65.988;29.172;2022-10-16T02:25:32;97702.22;;;6.74;100.00
73103;BME280;61294;65.988;29.172;2022-10-16T02:28:28;97699.59;;;6.74;100.00
73103;BME280;61294;65.988;29.172;2022-10-16T02:31:19;97704.84;;;6.72;100.00
73103;BME280;61294;65.988;29.172;2022-10-16T02:33:49;97677.88;;;6.53;100.00
73103;BME280;61294;65.988;29.172;2022-10-16T02:36:43;97684.84;;;6.61;100.00
73103;BME280;61294;65.988;29.172;2022-10-16T02:39:13;97717.06;;;6.73;100.00
73103;BME280;61294;65.988;29.172;2022-10-16T02:41:48;97697.91;;;6.64;100.00
73103;BME280;61294;65.988;29.172;2022-10-16T02:44:37;97685.72;;;6.58;100.00
73103;BME280;61294;65.988;29.172;2022-10-16T02:47:03;97668.31;;;6.49;100.00
73103;BME280;61294;65.988;29.172;2022-10-16T02:50:01;97659.59;;;6.47;100.00
73103;BME280;61294;65.988;29.172;2022-10-16T02:52:53;97675.25;;;6.56;100.00
73103;BME280;61294;65.988;29.172;2022-10-16T02:55:44;97675.25;;;6.55;100.00
73103;BME280;61294;65.988;29.172;2022-10-16T02:58:59;97670.03;;;6.53;100.00
73103;BME280;61294;65.988;29.172;2022-10-16T03:08:19;97687.41;;;6.65;100.00
73103;BME280;61294;65.988;29.172;2022-10-16T03:17:38;97676.97;;;6.64;100.00
73103;BME280;61294;65.988;29.172;2022-10-16T03:20:25;97655.22;;;6.48;100.00
73103;BME280;61294;65.988;29.172;2022-10-16T03:26:27;97646.50;;;6.50;100.00
73103;BME280;61294;65.988;29.172;2022-10-16T03:31:42;97626.50;;;6.37;100.00
73103;BME280;61294;65.988;29.172;2022-10-16T03:34:47;97636.06;;;6.47;100.00
73103;BME280;61294;65.988;29.172;2022-10-16T03:40:50;97604.72;;;6.33;100.00
73103;BME280;61294;65.988;29.172;2022-10-16T03:43:36;97611.69;;;6.37;100.00
73103;BME280;61294;65.988;29.172;2022-10-16T03:46:05;97609.91;;;6.41;100.00
73103;BME280;61294;65.988;29.172;2022-10-16T03:48:31;97647.31;;;6.62;100.00
73103;BME280;61294;65.988;29.172;2022-10-16T03:50:57;97644.69;;;6.63;100.00
73103;BME280;61294;65.988;29.172;2022-10-16T03:53:23;97629.88;;;6.59;100.00
73103;BME280;61294;65.988;29.172;2022-10-16T03:55:49;97620.34;;;6.50;100.00
73103;BME280;61294;65.988;29.172;2022-10-16T03:58:15;97614.25;;;6.51;100.00
73103;BME280;61294;65.988;29.172;2022-10-16T04:00:42;97636.00;;;6.56;100.00
73103;BME280;61294;65.988;29.172;2022-10-16T04:03:08;97629.91;;;6.57;100.00
73103;BME280;61294;65.988;29.172;2022-10-16T04:05:34;97632.50;;;6.61;100.00
73103;BME280;61294;65.988;29.172;2022-10-16T04:08:00;97639.47;;;6.62;100.00
73103;BME280;61294;65.988;29.172;2022-10-16T04:10:25;97632.50;;;6.57;100.00
73103;BME280;61294;65.988;29.172;2022-10-16T04:12:51;97609.91;;;6.47;100.00
73103;BME280;61294;65.988;29.172;2022-10-16T04:15:17;97622.94;;;6.55;100.00
73103;BME280;61294;65.988;29.172;2022-10-16T04:17:42;97630.75;;;6.60;100.00
73103;BME280;61294;65.988;29.172;2022-10-16T04:20:08;97630.75;;;6.60;100.00
73103;BME280;61294;65.988;29.172;2022-10-16T04:22:34;97630.75;;;6.60;100.00
73103;BME280;61294;65.988;29.172;2022-10-16T04:24:59;97618.56;;;6.59;100.00
73103;BME280;61294;65.988;29.172;2022-10-16T04:27:25;97628.16;;;6.56;100.00
73103;BME280;61294;65.988;29.172;2022-10-16T04:29:51;97626.41;;;6.59;100.00
73103;BME280;61294;65.988;29.172;2022-10-16T04:32:17;97625.53;;;6.58;100.00
73103;BME280;61294;65.988;29.172;2022-10-16T04:34:42;97635.16;;;6.56;100.00
73103;BME280;61294;65.988;29.172;2022-10-16T04:37:08;97622.91;;;6.56;100.00
73103;BME280;61294;65.988;29.172;2022-10-16T04:39:34;97627.31;;;6.54;100.00
73103;BME280;61294;65.988;29.172;2022-10-16T04:42:00;97628.13;;;6.58;100.00
73103;BME280;61294;65.988;29.172;2022-10-16T04:44:25;97630.75;;;6.58;100.00
73103;BME280;61294;65.988;29.172;2022-10-16T04:46:51;97606.41;;;6.47;100.00
73103;BME280;61294;65.988;29.172;2022-10-16T04:49:17;97599.44;;;6.46;100.00
73103;BME280;61294;65.988;29.172;2022-10-16T04:51:42;97623.78;;;6.55;100.00
73103;BME280;61294;65.988;29.172;2022-10-16T04:54:09;97628.16;;;6.56;100.00
73103;BME280;61294;65.988;29.172;2022-10-16T04:56:34;97614.25;;;6.51;100.00
73103;BME280;61294;65.988;29.172;2022-10-16T04:59:08;97622.91;;;6.56;100.00
73103;BME280;61294;65.988;29.172;2022-10-16T05:01:33;97624.66;;;6.57;100.00
73103;BME280;61294;65.988;29.172;2022-10-16T05:03:59;97601.19;;;6.45;100.00
73103;BME280;61294;65.988;29.172;2022-10-16T05:06:25;97608.13;;;6.49;100.00
73103;BME280;61294;65.988;29.172;2022-10-16T05:08:50;97628.16;;;6.56;100.00
73103;BME280;61294;65.988;29.172;2022-10-16T05:11:16;97606.41;;;6.47;100.00
73103;BME280;61294;65.988;29.172;2022-10-16T05:13:42;97622.06;;;6.56;100.00
73103;BME280;61294;65.988;29.172;2022-10-16T05:16:07;97593.34;;;6.44;100.00
73103;BME280;61294;65.988;29.172;2022-10-16T05:18:33;97620.28;;;6.58;100.00
73103;BME280;61294;65.988;29.172;2022-10-16T05:20:59;97586.38;;;6.38;100.00
73103;BME280;61294;65.988;29.172;2022-10-16T05:23:24;97610.72;;;6.55;100.00
73103;BME280;61294;65.988;29.172;2022-10-16T05:25:57;97613.34;;;6.57;100.00
73103;BME280;61294;65.988;29.172;2022-10-16T05:28:28;97611.59;;;6.54;100.00
73103;BME280;61294;65.988;29.172;2022-10-16T05:30:56;97611.59;;;6.57;100.00
73103;BME280;61294;65.988;29.172;2022-10-16T05:33:24;97610.72;;;6.52;100.00
73103;BME280;61294;65.988;29.172;2022-10-16T05:35:50;97617.69;;;6.58;100.00
73103;BME280;61294;65.988;29.172;2022-10-16T05:38:17;97590.72;;;6.42;100.00
73103;BME280;61294;65.988;29.172;2022-10-16T05:40:44;97610.72;;;6.57;100.00
73103;BME280;61294;65.988;29.172;2022-10-16T05:43:15;97607.22;;;6.55;100.00
73103;BME280;61294;65.988;29.172;2022-10-16T05:45:41;97579.41;;;6.43;100.00
73103;BME280;61294;65.988;29.172;2022-10-16T05:48:07;97574.16;;;6.43;100.00
73103;BME280;61294;65.988;29.172;2022-10-16T05:50:32;97606.34;;;6.57;100.00
73103;BME280;61294;65.988;29.172;2022-10-16T05:52:58;97594.16;;;6.55;100.00
73103;BME280;61294;65.988;29.172;2022-10-16T05:55:24;97594.16;;;6.55;100.00
73103;BME280;61294;65.988;29.172;2022-10-16T05:57:49;97604.63;;;6.53;100.00
73103;BME280;61294;65.988;29.172;2022-10-16T06:00:15;97574.16;;;6.45;100.00
73103;BME280;61294;65.988;29.172;2022-10-16T06:02:42;97578.53;;;6.38;100.00
73103;BME280;61294;65.988;29.172;2022-10-16T06:05:07;97595.91;;;6.53;100.00
73103;BME280;61294;65.988;29.172;2022-10-16T06:07:36;97584.59;;;6.49;100.00
73103;BME280;61294;65.988;29.172;2022-10-16T06:10:02;97599.38;;;6.53;100.00
73103;BME280;61294;65.988;29.172;2022-10-16T06:12:29;97568.13;;;6.32;100.00
73103;BME280;61294;65.988;29.172;2022-10-16T06:14:54;97562.00;;;6.30;100.00
73103;BME280;61294;65.988;29.172;2022-10-16T06:17:20;97568.06;;;6.39;100.00
73103;BME280;61294;65.988;29.172;2022-10-16T06:19:46;97601.16;;;6.51;100.00
73103;BME280;61294;65.988;29.172;2022-10-16T06:22:11;97561.94;;;6.42;100.00
73103;BME280;61294;65.988;29.172;2022-10-16T06:24:37;97594.16;;;6.53;100.00
73103;BME280;61294;65.988;29.172;2022-10-16T06:27:03;97565.44;;;6.41;100.00
73103;BME280;61294;65.988;29.172;2022-10-16T06:29:29;97600.25;;;6.52;100.00
73103;BME280;61294;65.988;29.172;2022-10-16T06:31:55;97568.94;;;6.43;100.00
73103;BME280;61294;65.988;29.172;2022-10-16T06:34:21;97595.91;;;6.54;100.00
73103;BME280;61294;65.988;29.172;2022-10-16T06:36:46;97578.47;;;6.52;100.00
73103;BME280;61294;65.988;29.172;2022-10-16T06:39:12;97581.94;;;6.52;100.00
73103;BME280;61294;65.988;29.172;2022-10-16T06:41:37;97590.66;;;6.57;100.00
73103;BME280;61294;65.988;29.172;2022-10-16T06:44:06;97587.16;;;6.55;100.00
73103;BME280;61294;65.988;29.172;2022-10-16T06:46:33;97597.63;;;6.59;100.00
73103;BME280;61294;65.988;29.172;2022-10-16T06:48:59;97568.94;;;6.45;100.00
73103;BME280;61294;65.988;29.172;2022-10-16T06:51:25;97602.84;;;6.60;100.00
73103;BME280;61294;65.988;29.172;2022-10-16T06:53:53;97604.59;;;6.60;100.00
73103;BME280;61294;65.988;29.172;2022-10-16T06:56:21;97588.91;;;6.55;100.00
73103;BME280;61294;65.988;29.172;2022-10-16T06:58:48;97608.97;;;6.59;100.00
73103;BME280;61294;65.988;29.172;2022-10-16T07:01:16;97598.47;;;6.61;100.00
73103;BME280;61294;65.988;29.172;2022-10-16T07:03:43;97593.28;;;6.57;100.00
73103;BME280;61294;65.988;29.172;2022-10-16T07:06:11;97596.72;;;6.64;100.00
73103;BME280;61294;65.988;29.172;2022-10-16T07:08:40;97581.03;;;6.58;100.00
73103;BME280;61294;65.988;29.172;2022-10-16T07:11:08;97601.06;;;6.70;100.00
73103;BME280;61294;65.988;29.172;2022-10-16T07:13:35;97608.00;;;6.71;100.00
73103;BME280;61294;65.988;29.172;2022-10-16T07:16:21;97601.06;;;6.70;100.00
73103;BME280;61294;65.988;29.172;2022-10-16T07:18:47;97602.78;;;6.69;100.00
73103;BME280;61294;65.988;29.172;2022-10-16T07:21:17;97599.31;;;6.67;100.00
73103;BME280;61294;65.988;29.172;2022-10-16T07:23:44;97602.81;;;6.66;100.00
73103;BME280;61294;65.988;29.172;2022-10-16T07:26:11;97601.06;;;6.68;100.00
73103;BME280;61294;65.988;29.172;2022-10-16T07:28:37;97594.97;;;6.66;100.00
73103;BME280;61294;65.988;29.172;2022-10-16T07:31:11;97594.09;;;6.64;100.00
73103;BME280;61294;65.988;29.172;2022-10-16T07:33:37;97606.28;;;6.65;100.00
73103;BME280;61294;65.988;29.172;2022-10-16T07:36:04;97592.38;;;6.63;100.00
73103;BME280;61294;65.988;29.172;2022-10-16T07:38:31;97595.84;;;6.68;100.00
73103;BME280;61294;65.988;29.172;2022-10-16T07:41:02;97595.84;;;6.68;100.00
73103;BME280;61294;65.988;29.172;2022-10-16T07:43:29;97602.78;;;6.69;100.00
73103;BME280;61294;65.988;29.172;2022-10-16T07:45:55;97601.06;;;6.67;100.00
73103;BME280;61294;65.988;29.172;2022-10-16T07:48:22;97597.56;;;6.66;100.00
73103;BME280;61294;65.988;29.172;2022-10-16T07:50:49;97601.91;;;6.70;100.00
73103;BME280;61294;65.988;29.172;2022-10-16T07:53:15;97562.75;;;6.56;100.00
73103;BME280;61294;65.988;29.172;2022-10-16T07:55:41;97587.09;;;6.66;100.00
73103;BME280;61294;65.988;29.172;2022-10-16T07:58:07;97560.16;;;6.53;100.00
73103;BME280;61294;65.988;29.172;2022-10-16T08:00:33;97590.59;;;6.70;100.00
73103;BME280;61294;65.988;29.172;2022-10-16T08:02:59;97567.97;;;6.56;100.00
73103;BME280;61294;65.988;29.172;2022-10-16T08:05:30;97601.88;;;6.73;100.00
73103;BME280;61294;65.988;29.172;2022-10-16T08:07:56;97589.66;;;6.74;100.00
73103;BME280;61294;65.988;29.172;2022-10-16T08:10:24;97595.78;;;6.76;100.00
73103;BME280;61294;65.988;29.172;2022-10-16T08:12:50;97587.91;;;6.78;100.00
73103;BME280;61294;65.988;29.172;2022-10-16T08:15:16;97594.00;;;6.78;100.00
73103;BME280;61294;65.988;29.172;2022-10-16T08:17:42;97592.25;;;6.80;100.00
73103;BME280;61294;65.988;29.172;2022-10-16T08:20:09;97580.94;;;6.75;100.00
73103;BME280;61294;65.988;29.172;2022-10-16T08:22:35;97578.28;;;6.80;100.00
73103;BME280;61294;65.988;29.172;2022-10-16T08:25:00;97565.19;;;6.80;100.00
73103;BME280;61294;65.988;29.172;2022-10-16T08:27:33;97576.47;;;6.91;100.00
73103;BME280;61294;65.988;29.172;2022-10-16T08:29:59;97572.16;;;6.87;100.00
73103;BME280;61294;65.988;29.172;2022-10-16T08:32:25;97544.28;;;6.81;100.00
73103;BME280;61294;65.988;29.172;2022-10-16T08:34:50;97561.66;;;6.88;100.00
73103;BME280;61294;65.988;29.172;2022-10-16T08:37:16;97579.94;;;6.96;100.00
73103;BME280;61294;65.988;29.172;2022-10-16T08:39:42;97573.81;;;6.99;100.00
73103;BME280;61294;65.988;29.172;2022-10-16T08:47:26;97567.69;;;7.01;100.00
73103;BME280;61294;65.988;29.172;2022-10-16T08:50:09;97569.34;;;7.12;100.00
73103;BME280;61294;65.988;29.172;2022-10-16T08:52:39;97550.16;;;7.06;100.00
73103;BME280;61294;65.988;29.172;2022-10-16T08:55:06;97562.41;;;7.06;100.00
73103;BME280;61294;65.988;29.172;2022-10-16T08:57:32;97551.91;;;7.09;100.00
73103;BME280;61294;65.988;29.172;2022-10-16T09:00:00;97561.44;;;7.15;100.00
73103;BME280;61294;65.988;29.172;2022-10-16T09:02:40;97557.06;;;7.15;100.00
73103;BME280;61294;65.988;29.172;2022-10-16T09:08:01;97559.69;;;7.18;100.00
73103;BME280;61294;65.988;29.172;2022-10-16T09:13:27;97542.25;;;7.11;100.00
73103;BME280;61294;65.988;29.172;2022-10-16T09:16:28;97548.38;;;7.13;100.00
73103;BME280;61294;65.988;29.172;2022-10-16T09:21:46;97544.78;;;7.23;100.00
73103;BME280;61294;65.988;29.172;2022-10-16T09:24:18;97543.91;;;7.24;100.00
73103;BME280;61294;65.988;29.172;2022-10-16T09:26:45;97543.97;;;7.20;100.00
73103;BME280;61294;65.988;29.172;2022-10-16T09:29:13;97545.69;;;7.18;100.00
73103;BME280;61294;65.988;29.172;2022-10-16T09:31:40;97523.94;;;7.13;100.00
73103;BME280;61294;65.988;29.172;2022-10-16T09:34:20;97511.81;;;6.99;100.00
73103;BME280;61294;65.988;29.172;2022-10-16T09:36:49;97534.41;;;7.14;100.00
73103;BME280;61294;65.988;29.172;2022-10-16T09:39:15;97503.09;;;7.00;100.00
73103;BME280;61294;65.988;29.172;2022-10-16T09:41:43;97528.28;;;7.12;100.00
73103;BME280;61294;65.988;29.172;2022-10-16T09:44:38;97525.72;;;7.09;100.00
73103;BME280;61294;65.988;29.172;2022-10-16T09:47:12;97513.59;;;6.99;100.00
73103;BME280;61294;65.988;29.172;2022-10-16T09:49:51;97520.44;;;7.11;100.00
73103;BME280;61294;65.988;29.172;2022-10-16T09:52:19;97486.53;;;6.95;100.00
73103;BME280;61294;65.988;29.172;2022-10-16T09:54:57;97516.06;;;7.11;100.00
73103;BME280;61294;65.988;29.172;2022-10-16T09:57:23;97502.97;;;7.14;100.00
73103;BME280;61294;65.988;29.172;2022-10-16T09:59:54;97488.25;;;7.01;100.00
73103;BME280;61294;65.988;29.172;2022-10-16T10:02:31;97505.59;;;7.14;100.00
73103;BME280;61294;65.988;29.172;2022-10-16T10:05:00;97508.22;;;7.13;100.00
73103;BME280;61294;65.988;29.172;2022-10-16T10:07:29;97502.97;;;7.16;100.00
73103;BME280;61294;65.988;29.172;2022-10-16T10:09:59;97502.06;;;7.15;100.00
73103;BME280;61294;65.988;29.172;2022-10-16T10:12:27;97501.22;;;7.15;100.00
73103;BME280;61294;65.988;29.172;2022-10-16T10:14:56;97502.06;;;7.17;100.00
73103;BME280;61294;65.988;29.172;2022-10-16T10:17:24;97456.81;;;7.01;100.00
73103;BME280;61294;65.988;29.172;2022-10-16T10:19:58;97494.25;;;7.12;100.00
73103;BME280;61294;65.988;29.172;2022-10-16T10:22:40;97489.91;;;7.08;100.00
73103;BME280;61294;65.988;29.172;2022-10-16T10:27:51;97486.44;;;7.07;100.00
73103;BME280;61294;65.988;29.172;2022-10-16T10:36:00;97467.22;;;7.10;100.00
73103;BME280;61294;65.988;29.172;2022-10-16T10:52:27;97453.25;;;7.09;100.00
73103;BME280;61294;65.988;29.172;2022-10-16T10:55:23;97448.94;;;7.02;100.00
73103;BME280;61294;65.988;29.172;2022-10-16T11:01:12;97428.97;;;6.92;100.00
73103;BME280;61294;65.988;29.172;2022-10-16T11:09:14;97432.44;;;6.97;100.00
73103;BME280;61294;65.988;29.172;2022-10-16T11:11:42;97441.97;;;7.03;100.00
73103;BME280;61294;65.988;29.172;2022-10-16T11:14:18;97438.50;;;7.01;100.00
73103;BME280;61294;65.988;29.172;2022-10-16T11:16:58;97440.22;;;7.03;100.00
73103;BME280;61294;65.988;29.172;2022-10-16T11:19:49;97435.88;;;7.01;100.00
73103;BME280;61294;65.988;29.172;2022-10-16T11:22:24;97438.41;;;7.10;100.00
73103;BME280;61294;65.988;29.172;2022-10-16T11:30:25;97416.56;;;7.11;100.00
73103;BME280;61294;65.988;29.172;2022-10-16T11:35:57;97399.19;;;7.07;100.00
73103;BME280;61294;65.988;29.172;2022-10-16T11:38:37;97426.09;;;7.20;100.00
73103;BME280;61294;65.988;29.172;2022-10-16T11:41:28;97407.88;;;7.07;100.00
73103;BME280;61294;65.988;29.172;2022-10-16T11:44:19;97404.38;;;7.10;100.00
73103;BME280;61294;65.988;29.172;2022-10-16T11:50:28;97413.94;;;7.14;100.00
73103;BME280;61294;65.988;29.172;2022-10-16T11:55:53;97381.69;;;7.09;100.00
73103;BME280;61294;65.988;29.172;2022-10-16T11:58:41;97397.28;;;7.20;100.00
73103;BME280;61294;65.988;29.172;2022-10-16T12:01:17;97390.38;;;7.14;100.00
73103;BME280;61294;65.988;29.172;2022-10-16T12:06:42;97391.25;;;7.12;100.00
73103;BME280;61294;65.988;29.172;2022-10-16T12:11:43;97370.38;;;7.04;100.00
73103;BME280;61294;65.988;29.172;2022-10-16T12:16:54;97378.22;;;7.07;100.00
73103;BME280;61294;65.988;29.172;2022-10-16T12:19:22;97371.16;;;7.12;100.00
73103;BME280;61294;65.988;29.172;2022-10-16T12:21:50;97365.03;;;7.15;100.00
73103;BME280;61294;65.988;29.172;2022-10-16T12:24:31;97359.72;;;7.19;100.00
73103;BME280;61294;65.988;29.172;2022-10-16T12:26:58;97363.22;;;7.21;100.00
73103;BME280;61294;65.988;29.172;2022-10-16T12:29:34;97352.84;;;7.11;100.00
73103;BME280;61294;65.988;29.172;2022-10-16T12:32:03;97363.28;;;7.15;100.00
73103;BME280;61294;65.988;29.172;2022-10-16T12:35:05;97343.34;;;7.03;100.00
73103;BME280;61294;65.988;29.172;2022-10-16T12:37:28;97358.94;;;7.14;100.00
73103;BME280;61294;65.988;29.172;2022-10-16T12:39:56;97347.63;;;7.11;100.00
73103;BME280;61294;65.988;29.172;2022-10-16T12:42:32;97347.53;;;7.18;100.00
73103;BME280;61294;65.988;29.172;2022-10-16T12:44:59;97333.66;;;7.10;100.00
73103;BME280;61294;65.988;29.172;2022-10-16T12:49:57;97326.63;;;7.14;100.00
73103;BME280;61294;65.988;29.172;2022-10-16T12:52:31;97321.38;;;7.14;100.00
73103;BME280;61294;65.988;29.172;2022-10-16T12:55:00;97305.81;;;7.04;100.00
73103;BME280;61294;65.988;29.172;2022-10-16T12:57:41;97314.53;;;7.05;100.00
73103;BME280;61294;65.988;29.172;2022-10-16T13:00:21;97297.16;;;6.98;100.00
73103;BME280;61294;65.988;29.172;2022-10-16T13:16:29;97287.50;;;7.03;100.00
73103;BME280;61294;65.988;29.172;2022-10-16T13:19:29;97273.63;;;6.95;100.00
73103;BME280;61294;65.988;29.172;2022-10-16T13:22:06;97256.34;;;6.83;100.00
73103;BME280;61294;65.988;29.172;2022-10-16T13:25:05;97272.78;;;6.94;100.00
73103;BME280;61294;65.988;29.172;2022-10-16T13:27:45;97258.88;;;6.89;100.00
73103;BME280;61294;65.988;29.172;2022-10-16T13:30:21;97264.03;;;6.94;100.00
73103;BME280;61294;65.988;29.172;2022-10-16T13:32:49;97253.66;;;6.87;100.00
73103;BME280;61294;65.988;29.172;2022-10-16T13:35:34;97258.03;;;6.87;100.00
73103;BME280;61294;65.988;29.172;2022-10-16T13:38:15;97232.88;;;6.73;100.00
73103;BME280;61294;65.988;29.172;2022-10-16T13:40:57;97258.91;;;6.86;100.00
73103;BME280;61294;65.988;29.172;2022-10-16T13:43:43;97258.03;;;6.84;100.00
73103;BME280;61294;65.988;29.172;2022-10-16T13:48:44;97231.09;;;6.79;100.00
73103;BME280;61294;65.988;29.172;2022-10-16T13:51:16;97211.22;;;6.61;100.00
73103;BME280;61294;65.988;29.172;2022-10-16T13:53:43;97206.81;;;6.66;100.00
73103;BME280;61294;65.988;29.172;2022-10-16T13:56:15;97205.91;;;6.67;100.00
73103;BME280;61294;65.988;29.172;2022-10-16T13:58:41;97224.03;;;6.82;100.00
73103;BME280;61294;65.988;29.172;2022-10-16T14:01:20;97220.56;;;6.82;100.00
73103;BME280;61294;65.988;29.172;2022-10-16T14:03:48;97190.22;;;6.67;100.00
73103;BME280;61294;65.988;29.172;2022-10-16T14:06:18;97217.94;;;6.82;100.00
73103;BME280;61294;65.988;29.172;2022-10-16T14:08:59;97223.13;;;6.86;100.00
73103;BME280;61294;65.988;29.172;2022-10-16T14:11:26;97210.91;;;6.85;100.00
73103;BME280;61294;65.988;29.172;2022-10-16T14:13:53;97200.47;;;6.82;100.00
73103;BME280;61294;65.988;29.172;2022-10-16T14:16:21;97203.09;;;6.82;100.00
73103;BME280;61294;65.988;29.172;2022-10-16T14:19:03;97183.09;;;6.78;100.00
73103;BME280;61294;65.988;29.172;2022-10-16T14:21:32;97197.00;;;6.82;100.00
73103;BME280;61294;65.988;29.172;2022-10-16T14:23:58;97190.03;;;6.81;100.00
73103;BME280;61294;65.988;29.172;2022-10-16T14:26:27;97194.44;;;6.79;100.00
73103;BME280;61294;65.988;29.172;2022-10-16T14:29:17;97178.72;;;6.80;100.00
73103;BME280;61294;65.988;29.172;2022-10-16T14:32:00;97164.91;;;6.69;100.00
73103;BME280;61294;65.988;29.172;2022-10-16T14:34:30;97157.94;;;6.68;100.00
73103;BME280;61294;65.988;29.172;2022-10-16T14:37:00;97172.63;;;6.78;100.00
73103;BME280;61294;65.988;29.172;2022-10-16T14:39:32;97170.88;;;6.80;100.00
73103;BME280;61294;65.988;29.172;2022-10-16T14:41:58;97172.59;;;6.81;100.00
73103;BME280;61294;65.988;29.172;2022-10-16T14:44:30;97145.66;;;6.73;100.00
73103;BME280;61294;65.988;29.172;2022-10-16T14:47:12;97154.25;;;6.83;100.00
73103;BME280;61294;65.988;29.172;2022-10-16T14:49:42;97153.34;;;6.87;100.00
73103;BME280;61294;65.988;29.172;2022-10-16T14:52:12;97130.75;;;6.78;100.00
73103;BME280;61294;65.988;29.172;2022-10-16T14:54:39;97135.06;;;6.81;100.00
73103;BME280;61294;65.988;29.172;2022-10-16T14:57:19;97141.09;;;6.87;100.00
73103;BME280;61294;65.988;29.172;2022-10-16T14:59:47;97139.34;;;6.86;100.00
73103;BME280;61294;65.988;29.172;2022-10-16T15:04:54;97105.53;;;6.72;100.00
73103;BME280;61294;65.988;29.172;2022-10-16T15:07:20;97114.16;;;6.79;100.00
73103;BME280;61294;65.988;29.172;2022-10-16T15:09:46;97128.00;;;6.89;100.00
73103;BME280;61294;65.988;29.172;2022-10-16T15:12:12;97131.47;;;6.89;100.00
73103;BME280;61294;65.988;29.172;2022-10-16T15:14:38;97127.09;;;6.91;100.00
73103;BME280;61294;65.988;29.172;2022-10-16T15:17:04;97134.03;;;6.93;100.00
73103;BME280;61294;65.988;29.172;2022-10-16T15:19:30;97134.03;;;6.93;100.00
73103;BME280;61294;65.988;29.172;2022-10-16T15:21:56;97122.69;;;6.94;100.00
73103;BME280;61294;65.988;29.172;2022-10-16T15:24:22;97122.66;;;6.95;100.00
73103;BME280;61294;65.988;29.172;2022-10-16T15:26:47;97116.56;;;6.95;100.00
73103;BME280;61294;65.988;29.172;2022-10-16T15:29:14;97097.47;;;6.86;100.00